createdAt,value
2022-11-10T00:00:57.311Z,2.07
2022-11-10T00:03:24.737Z,2.30
2022-11-10T00:05:51.283Z,2.57
2022-11-10T00:08:17.747Z,3.43
2022-11-10T00:10:59.379Z,2.80
2022-11-10T00:13:27.088Z,2.67
2022-11-10T00:16:12.858Z,2.80
2022-11-10T00:18:39.335Z,2.20
2022-11-10T00:21:07.695Z,2.00
2022-11-10T00:23:34.424Z,1.80
2022-11-10T00:26:01.041Z,2.00
2022-11-10T00:28:30.784Z,1.70
2022-11-10T00:30:57.677Z,1.67
2022-11-10T00:33:27.168Z,1.63
2022-11-10T00:35:53.584Z,1.90
2022-11-10T00:38:20.044Z,1.60
2022-11-10T00:40:47.831Z,1.80
2022-11-10T00:43:14.279Z,1.70
2022-11-10T00:45:43.185Z,1.23
2022-11-10T00:48:09.713Z,1.80
2022-11-10T00:50:36.144Z,1.50
2022-11-10T00:53:02.757Z,1.50
2022-11-10T00:55:29.189Z,1.60
2022-11-10T00:57:55.696Z,1.47
2022-11-10T01:00:22.283Z,1.37
2022-11-10T01:02:48.780Z,1.40
2022-11-10T01:05:15.259Z,1.60
2022-11-10T01:07:41.694Z,1.70
2022-11-10T01:10:08.380Z,1.70
2022-11-10T01:12:34.924Z,1.70
2022-11-10T01:15:01.371Z,1.67
2022-11-10T01:17:29.818Z,2.43
2022-11-10T01:19:56.444Z,2.63
2022-11-10T01:22:23.003Z,2.67
2022-11-10T01:24:49.464Z,2.93
2022-11-10T01:27:15.908Z,2.60
2022-11-10T01:29:42.396Z,2.77
2022-11-10T01:32:08.836Z,2.93
2022-11-10T01:34:35.290Z,3.60
2022-11-10T01:37:01.740Z,3.20
2022-11-10T01:39:28.249Z,3.23
2022-11-10T01:41:54.744Z,3.70
2022-11-10T01:44:24.663Z,3.83
2022-11-10T01:46:51.298Z,3.90
2022-11-10T01:49:20.532Z,4.23
2022-11-10T01:51:49.992Z,4.53
2022-11-10T01:54:22.780Z,4.90
2022-11-10T01:56:52.041Z,5.70
2022-11-10T01:59:23.132Z,5.33
2022-11-10T02:01:50.565Z,4.87
2022-11-10T02:04:19.652Z,5.10
2022-11-10T02:06:47.315Z,5.63
2022-11-10T02:09:14.141Z,6.67
2022-11-10T02:11:42.326Z,5.00
2022-11-10T02:14:09.072Z,5.43
2022-11-10T02:16:35.986Z,6.40
2022-11-10T02:19:23.778Z,7.67
2022-11-10T02:21:50.229Z,7.63
2022-11-10T02:24:17.105Z,6.57
2022-11-10T02:26:47.252Z,6.80
2022-11-10T02:29:14.123Z,6.97
2022-11-10T02:31:40.586Z,5.93
2022-11-10T02:34:07.096Z,6.93
2022-11-10T02:36:33.747Z,6.40
2022-11-10T02:39:00.277Z,5.93
2022-11-10T02:41:26.793Z,5.80
2022-11-10T02:43:54.477Z,5.83
2022-11-10T02:46:20.922Z,6.37
2022-11-10T02:48:47.473Z,6.50
2022-11-10T02:51:14.204Z,5.53
2022-11-10T02:53:40.669Z,6.20
2022-11-10T02:56:07.380Z,6.63
2022-11-10T02:58:33.868Z,6.17
2022-11-10T03:01:00.360Z,5.83
2022-11-10T03:03:27.341Z,4.97
2022-11-10T03:05:53.821Z,5.30
2022-11-10T03:08:20.282Z,5.53
2022-11-10T03:10:46.746Z,5.27
2022-11-10T03:13:13.212Z,5.60
2022-11-10T03:15:39.736Z,5.20
2022-11-10T03:18:06.235Z,4.70
2022-11-10T03:20:32.716Z,4.43
2022-11-10T03:23:04.018Z,4.97
2022-11-10T03:25:30.823Z,4.27
2022-11-10T03:27:57.258Z,4.97
2022-11-10T03:30:23.838Z,4.70
2022-11-10T03:32:50.266Z,4.70
2022-11-10T03:35:16.766Z,4.80
2022-11-10T03:37:43.254Z,4.40
2022-11-10T03:40:10.295Z,4.33
2022-11-10T03:42:36.743Z,4.40
2022-11-10T03:45:03.340Z,5.00
2022-11-10T03:47:29.783Z,4.93
2022-11-10T03:49:56.214Z,4.30
2022-11-10T03:52:22.675Z,4.60
2022-11-10T03:54:49.137Z,4.63
2022-11-10T03:57:15.997Z,5.10
2022-11-10T03:59:42.485Z,4.67
2022-11-10T04:02:09.081Z,5.20
2022-11-10T04:04:54.373Z,4.53
2022-11-10T04:07:39.482Z,4.97
2022-11-10T04:10:06.603Z,4.77
2022-11-10T04:12:51.776Z,5.23
2022-11-10T04:15:36.770Z,5.30
2022-11-10T04:18:21.592Z,5.17
2022-11-10T04:20:48.796Z,4.70
2022-11-10T04:23:27.981Z,5.23
2022-11-10T04:26:17.596Z,4.67
2022-11-10T04:28:45.629Z,5.30
2022-11-10T04:31:13.009Z,5.00
2022-11-10T04:33:40.159Z,5.13
2022-11-10T04:36:07.437Z,5.77
2022-11-10T04:38:34.019Z,5.23
2022-11-10T04:41:00.889Z,5.53
2022-11-10T04:43:27.783Z,5.87
2022-11-10T04:45:54.550Z,5.50
2022-11-10T04:48:21.518Z,5.90
2022-11-10T04:50:47.999Z,5.40
2022-11-10T04:53:14.681Z,6.13
2022-11-10T04:55:42.872Z,6.10
2022-11-10T04:58:09.511Z,5.87
2022-11-10T05:00:36.741Z,6.03
2022-11-10T05:03:05.379Z,5.87
2022-11-10T05:05:31.883Z,5.63
2022-11-10T05:07:58.861Z,6.10
2022-11-10T05:10:25.912Z,5.20
2022-11-10T05:12:58.771Z,5.63
2022-11-10T05:15:25.606Z,6.10
2022-11-10T05:17:53.535Z,5.97
2022-11-10T05:20:21.671Z,5.83
2022-11-10T05:23:09.622Z,6.00
2022-11-10T05:25:38.501Z,6.13
2022-11-10T05:28:06.482Z,6.70
2022-11-10T05:30:33.929Z,6.00
2022-11-10T05:33:00.365Z,6.30
2022-11-10T05:35:26.806Z,7.00
2022-11-10T05:37:53.268Z,6.20
2022-11-10T05:40:19.745Z,6.10
2022-11-10T05:42:47.588Z,7.27
2022-11-10T05:45:15.316Z,6.77
2022-11-10T05:47:41.950Z,6.43
2022-11-10T05:50:09.017Z,6.83
2022-11-10T05:52:35.684Z,6.53
2022-11-10T05:55:02.137Z,7.40
2022-11-10T05:57:28.621Z,6.97
2022-11-10T05:59:55.099Z,6.77
2022-11-10T06:02:21.541Z,7.90
2022-11-10T06:04:48.000Z,7.77
2022-11-10T06:07:14.812Z,7.80
2022-11-10T06:09:41.516Z,8.93
2022-11-10T06:12:08.141Z,8.53
2022-11-10T06:14:34.652Z,9.73
2022-11-10T06:17:01.111Z,9.33
2022-11-10T06:19:27.584Z,9.97
2022-11-10T06:22:00.472Z,10.87
2022-11-10T06:24:28.976Z,10.13
2022-11-10T06:26:55.409Z,10.77
2022-11-10T06:29:26.656Z,11.97
2022-11-10T06:31:53.468Z,11.47
2022-11-10T06:34:19.930Z,11.10
2022-11-10T06:36:46.356Z,11.50
2022-11-10T06:39:12.874Z,12.20
2022-11-10T06:41:39.298Z,12.70
2022-11-10T06:44:06.474Z,13.60
2022-11-10T06:46:35.869Z,12.70
2022-11-10T06:49:04.945Z,12.53
2022-11-10T06:51:31.363Z,12.83
2022-11-10T06:53:57.898Z,13.07
2022-11-10T06:56:24.410Z,13.70
2022-11-10T06:58:50.851Z,12.87
2022-11-10T07:01:22.118Z,13.67
2022-11-10T07:04:17.541Z,12.60
2022-11-10T07:06:35.490Z,14.43
2022-11-10T07:09:01.981Z,13.70
2022-11-10T07:11:28.415Z,12.80
2022-11-10T07:13:54.873Z,13.63
2022-11-10T07:16:24.482Z,14.40
2022-11-10T07:18:51.813Z,14.60
2022-11-10T07:21:18.311Z,15.53
2022-11-10T07:23:46.855Z,16.17
2022-11-10T07:26:13.465Z,15.13
2022-11-10T07:28:39.917Z,15.10
2022-11-10T07:31:06.361Z,14.67
2022-11-10T07:33:32.803Z,14.60
2022-11-10T07:36:03.926Z,14.50
2022-11-10T07:38:30.402Z,13.47
2022-11-10T07:40:57.000Z,14.53
2022-11-10T07:43:25.229Z,14.13
2022-11-10T07:45:52.912Z,14.43
2022-11-10T07:48:19.877Z,13.53
2022-11-10T07:50:46.706Z,13.50
2022-11-10T07:53:15.393Z,12.90
2022-11-10T07:55:44.236Z,13.13
2022-11-10T07:58:12.224Z,13.47
2022-11-10T08:00:38.959Z,13.20
2022-11-10T08:03:07.405Z,11.87
2022-11-10T08:05:34.343Z,12.20
2022-11-10T08:08:00.847Z,13.20
2022-11-10T08:10:28.391Z,12.03
2022-11-10T08:13:02.266Z,12.27
2022-11-10T08:15:29.687Z,11.67
2022-11-10T08:18:08.717Z,11.40
2022-11-10T08:20:35.315Z,11.27
2022-11-10T08:23:05.048Z,11.60
2022-11-10T08:28:06.994Z,10.90
2022-11-10T08:30:35.303Z,11.30
2022-11-10T08:33:03.044Z,11.47
2022-11-10T08:35:31.065Z,10.73
2022-11-10T08:37:57.917Z,10.67
2022-11-10T08:40:27.701Z,10.27
2022-11-10T08:43:01.624Z,11.53
2022-11-10T08:45:28.579Z,10.27
2022-11-10T08:48:03.120Z,10.67
2022-11-10T08:50:29.952Z,9.93
2022-11-10T08:52:57.291Z,10.43
2022-11-10T08:55:23.898Z,9.40
2022-11-10T08:57:50.368Z,9.50
2022-11-10T09:00:17.495Z,10.27
2022-11-10T09:02:44.039Z,10.10
2022-11-10T09:05:10.671Z,9.63
2022-11-10T09:07:45.107Z,10.10
2022-11-10T09:10:13.172Z,9.90
2022-11-10T09:12:40.998Z,11.13
2022-11-10T09:15:08.372Z,10.80
2022-11-10T09:17:35.051Z,10.83
2022-11-10T09:20:01.758Z,10.07
2022-11-10T09:22:28.390Z,11.47
2022-11-10T09:24:54.846Z,10.77
2022-11-10T09:27:21.433Z,10.37
2022-11-10T09:29:47.884Z,10.60
2022-11-10T09:32:14.307Z,10.07
2022-11-10T09:34:40.767Z,9.63
2022-11-10T09:37:07.218Z,10.27
2022-11-10T09:39:33.658Z,9.77
2022-11-10T09:42:00.091Z,9.70
2022-11-10T09:44:31.074Z,9.87
2022-11-10T09:47:19.023Z,10.13
2022-11-10T09:50:00.996Z,10.00
2022-11-10T09:52:29.989Z,9.20
2022-11-10T09:55:03.702Z,8.83
2022-11-10T09:57:30.424Z,10.03
2022-11-10T09:59:57.033Z,9.43
2022-11-10T10:02:38.616Z,10.33
2022-11-10T10:05:47.402Z,9.47
2022-11-10T10:08:22.985Z,9.70
2022-11-10T10:11:07.253Z,10.63
2022-11-10T10:13:51.283Z,10.20
2022-11-10T10:16:49.843Z,10.23
2022-11-10T10:19:58.490Z,9.33
2022-11-10T10:22:34.952Z,8.70
2022-11-10T10:25:04.186Z,10.60
2022-11-10T10:27:31.776Z,8.97
2022-11-10T10:29:58.385Z,10.13
2022-11-10T10:32:26.680Z,9.60
2022-11-10T10:34:53.157Z,9.77
2022-11-10T10:37:46.473Z,9.77
2022-11-10T10:40:31.059Z,9.43
2022-11-10T10:42:59.718Z,9.50
2022-11-10T10:45:29.074Z,9.43
2022-11-10T10:47:57.422Z,9.43
2022-11-10T10:50:35.552Z,9.47
2022-11-10T10:53:11.075Z,8.90
2022-11-10T10:55:38.138Z,9.57
2022-11-10T10:58:18.735Z,9.17
2022-11-10T11:00:47.808Z,9.33
2022-11-10T11:03:48.737Z,9.00
2022-11-10T11:06:15.536Z,8.30
2022-11-10T11:09:04.306Z,9.20
2022-11-10T11:11:33.396Z,8.80
2022-11-10T11:14:19.984Z,10.20
2022-11-10T11:17:04.437Z,10.17
2022-11-10T11:19:33.749Z,9.13
2022-11-10T11:22:12.373Z,9.93
2022-11-10T11:25:06.807Z,9.70
2022-11-10T11:28:03.741Z,9.27
2022-11-10T11:30:53.408Z,9.67
2022-11-10T11:33:42.040Z,10.17
2022-11-10T11:36:33.154Z,8.77
2022-11-10T11:39:21.964Z,9.20
2022-11-10T11:42:20.061Z,10.07
2022-11-10T11:45:14.297Z,9.70
2022-11-10T11:48:19.799Z,8.30
2022-11-10T11:50:51.902Z,8.70
2022-11-10T11:53:46.397Z,8.57
2022-11-10T11:56:27.068Z,8.70
2022-11-10T11:59:32.567Z,8.60
2022-11-10T12:02:23.680Z,8.83
2022-11-10T12:05:04.061Z,8.00
2022-11-10T12:07:56.073Z,8.20
2022-11-10T12:10:52.835Z,7.47
2022-11-10T12:13:47.520Z,7.67
2022-11-10T12:16:23.456Z,7.30
2022-11-10T12:19:01.372Z,7.40
2022-11-10T12:21:32.850Z,7.60
2022-11-10T12:24:37.438Z,7.53
2022-11-10T12:27:15.494Z,7.23
2022-11-10T12:30:03.242Z,6.83
2022-11-10T12:32:46.862Z,7.03
2022-11-10T12:35:20.286Z,6.13
2022-11-10T12:37:53.719Z,6.80
2022-11-10T12:40:27.791Z,6.33
2022-11-10T12:43:00.458Z,6.23
2022-11-10T12:45:32.548Z,6.20
2022-11-10T12:47:59.882Z,5.37
2022-11-10T12:50:42.395Z,8.57
2022-11-10T12:53:31.306Z,8.83
2022-11-10T12:56:11.748Z,5.67
2022-11-10T12:58:38.238Z,5.33
2022-11-10T13:01:14.697Z,6.10
2022-11-10T13:03:54.278Z,5.77
2022-11-10T13:06:50.639Z,6.57
2022-11-10T13:09:32.091Z,5.80
2022-11-10T13:12:10.749Z,5.17
2022-11-10T13:14:38.575Z,5.40
2022-11-10T13:17:05.629Z,5.00
2022-11-10T13:19:38.906Z,5.13
2022-11-10T13:22:10.220Z,6.40
2022-11-10T13:24:38.514Z,5.87
2022-11-10T13:27:13.952Z,6.27
2022-11-10T13:29:43.470Z,5.57
2022-11-10T13:32:25.479Z,5.93
2022-11-10T13:34:52.647Z,6.57
2022-11-10T13:37:46.919Z,6.03
2022-11-10T13:40:25.686Z,4.63
2022-11-10T13:42:58.276Z,4.90
2022-11-10T13:45:43.288Z,7.83
2022-11-10T13:48:12.840Z,4.97
2022-11-10T13:51:01.341Z,5.27
2022-11-10T13:53:49.666Z,5.07
2022-11-10T13:56:41.608Z,5.63
2022-11-10T13:59:27.381Z,5.30
2022-11-10T14:01:53.930Z,5.17
2022-11-10T14:04:35.702Z,4.93
2022-11-10T14:07:03.763Z,5.57
2022-11-10T14:09:41.451Z,5.00
2022-11-10T14:12:28.792Z,5.90
2022-11-10T14:15:00.767Z,4.93
2022-11-10T14:17:29.867Z,4.37
2022-11-10T14:19:56.421Z,4.93
2022-11-10T14:22:27.816Z,4.40
2022-11-10T14:24:57.607Z,4.57
2022-11-10T14:27:27.307Z,4.97
2022-11-10T14:30:30.448Z,4.23
2022-11-10T14:33:14.388Z,4.50
2022-11-10T14:36:13.452Z,4.10
2022-11-10T14:38:43.804Z,4.27
2022-11-10T14:41:16.792Z,4.87
2022-11-10T14:43:43.257Z,4.33
2022-11-10T14:46:15.303Z,4.33
2022-11-10T14:48:41.841Z,4.97
2022-11-10T14:51:17.448Z,4.13
2022-11-10T14:53:48.472Z,3.80
2022-11-10T14:56:19.750Z,4.50
2022-11-10T14:58:47.269Z,5.07
2022-11-10T15:01:34.652Z,5.03
2022-11-10T15:04:03.324Z,4.10
2022-11-10T15:06:30.142Z,4.77
2022-11-10T15:08:57.044Z,4.03
2022-11-10T15:11:41.437Z,5.03
2022-11-10T15:14:44.733Z,4.17
2022-11-10T15:17:20.400Z,4.70
2022-11-10T15:19:46.994Z,4.63
2022-11-10T15:22:18.177Z,4.83
2022-11-10T15:24:46.930Z,4.73
2022-11-10T15:27:23.473Z,5.10
2022-11-10T15:29:50.708Z,7.33
2022-11-10T15:32:21.127Z,6.27
2022-11-10T15:34:48.833Z,6.57
2022-11-10T15:37:31.100Z,4.10
2022-11-10T15:40:46.696Z,5.40
2022-11-10T15:43:26.769Z,4.80
2022-11-10T15:46:15.014Z,5.00
2022-11-10T15:48:49.269Z,4.73
2022-11-10T15:51:22.841Z,5.80
2022-11-10T15:53:54.304Z,5.83
2022-11-10T15:56:22.675Z,4.30
2022-11-10T15:58:51.048Z,5.77
2022-11-10T16:01:18.007Z,4.93
2022-11-10T16:03:45.855Z,4.27
2022-11-10T16:06:16.482Z,4.40
2022-11-10T16:08:43.270Z,4.17
2022-11-10T16:11:17.440Z,4.60
2022-11-10T16:13:44.060Z,4.13
2022-11-10T16:16:15.378Z,3.77
2022-11-10T16:18:43.932Z,4.00
2022-11-10T16:21:19.753Z,4.47
2022-11-10T16:23:46.781Z,3.60
2022-11-10T16:26:14.818Z,3.70
2022-11-10T16:28:44.118Z,3.80
2022-11-10T16:31:11.539Z,3.70
2022-11-10T16:33:38.161Z,4.10
2022-11-10T16:36:04.927Z,4.30
2022-11-10T16:38:32.144Z,4.40
2022-11-10T16:41:03.694Z,4.13
2022-11-10T16:43:31.411Z,3.50
2022-11-10T16:46:00.587Z,3.93
2022-11-10T16:48:31.967Z,4.40
2022-11-10T16:51:00.102Z,4.93
2022-11-10T16:53:31.283Z,4.63
2022-11-10T16:55:58.328Z,4.30
2022-11-10T16:58:26.039Z,4.73
2022-11-10T17:00:54.198Z,4.33
2022-11-10T17:03:27.316Z,3.97
2022-11-10T17:05:53.839Z,4.03
2022-11-10T17:08:23.207Z,3.90
2022-11-10T17:10:50.939Z,4.17
2022-11-10T17:13:18.018Z,4.60
2022-11-10T17:15:45.467Z,3.53
2022-11-10T17:18:17.309Z,3.90
2022-11-10T17:20:47.025Z,3.60
2022-11-10T17:23:14.677Z,3.90
2022-11-10T17:25:41.652Z,3.80
2022-11-10T17:28:16.556Z,3.33
2022-11-10T17:30:43.194Z,3.60
2022-11-10T17:33:10.174Z,3.67
2022-11-10T17:35:45.514Z,3.73
2022-11-10T17:38:13.389Z,3.63
2022-11-10T17:40:42.131Z,3.30
2022-11-10T17:43:12.964Z,4.20
2022-11-10T17:45:39.841Z,3.33
2022-11-10T17:48:07.136Z,3.57
2022-11-10T17:50:35.792Z,3.37
2022-11-10T17:53:23.332Z,3.60
2022-11-10T17:55:50.252Z,3.83
2022-11-10T17:58:17.611Z,3.53
2022-11-10T18:00:47.473Z,3.63
2022-11-10T18:03:19.663Z,3.77
2022-11-10T18:05:54.476Z,3.60
2022-11-10T18:08:20.959Z,3.37
2022-11-10T18:14:56.379Z,2.87
2022-11-10T18:17:25.432Z,3.77
2022-11-10T18:19:52.661Z,3.30
2022-11-10T18:22:22.757Z,4.10
2022-11-10T18:24:49.678Z,4.03
2022-11-10T18:27:16.879Z,3.80
2022-11-10T18:29:43.915Z,3.83
2022-11-10T18:32:30.713Z,3.97
2022-11-10T18:35:00.359Z,3.73
2022-11-10T18:37:30.447Z,4.37
2022-11-10T18:39:57.277Z,3.20
2022-11-10T18:42:35.439Z,3.57
2022-11-10T18:45:03.647Z,4.17
2022-11-10T18:47:30.851Z,3.50
2022-11-10T18:49:58.440Z,3.77
2022-11-10T18:52:26.425Z,3.80
2022-11-10T18:54:54.627Z,3.90
2022-11-10T18:57:22.715Z,4.10
2022-11-10T18:59:51.045Z,3.47
2022-11-10T19:02:21.296Z,3.80
2022-11-10T19:04:53.399Z,4.13
2022-11-10T19:07:24.994Z,4.17
2022-11-10T19:09:52.631Z,3.43
2022-11-10T19:12:25.434Z,5.20
2022-11-10T19:14:58.607Z,4.27
2022-11-10T19:17:25.559Z,4.67
2022-11-10T19:19:56.454Z,3.77
2022-11-10T19:22:23.934Z,4.10
2022-11-10T19:25:07.484Z,4.40
2022-11-10T19:27:35.521Z,4.67
2022-11-10T19:30:02.167Z,4.87
2022-11-10T19:32:29.920Z,6.10
2022-11-10T19:34:59.275Z,4.23
2022-11-10T19:37:28.674Z,5.70
2022-11-10T19:39:58.998Z,4.40
2022-11-10T19:42:26.080Z,5.10
2022-11-10T19:44:54.413Z,4.97
2022-11-10T19:47:21.868Z,7.77
2022-11-10T19:49:50.630Z,4.80
2022-11-10T19:52:27.620Z,4.43
2022-11-10T19:54:54.469Z,4.93
2022-11-10T19:57:22.805Z,4.50
2022-11-10T19:59:49.964Z,4.00
2022-11-10T20:02:19.493Z,4.40
2022-11-10T20:05:06.095Z,3.83
2022-11-10T20:07:51.588Z,3.60
2022-11-10T20:10:19.192Z,3.30
2022-11-10T20:12:47.654Z,3.77
2022-11-10T20:15:16.081Z,3.17
2022-11-10T20:17:44.204Z,3.43
2022-11-10T20:20:12.409Z,3.87
2022-11-10T20:22:40.661Z,4.20
2022-11-10T20:27:35.819Z,3.87
2022-11-10T20:30:03.388Z,3.73
2022-11-10T20:32:31.061Z,4.17
2022-11-10T20:34:58.032Z,4.27
2022-11-10T20:37:24.873Z,4.10
2022-11-10T20:39:53.379Z,3.67
2022-11-10T20:42:20.565Z,3.80
2022-11-10T20:44:47.080Z,4.27
2022-11-10T20:47:13.606Z,3.37
2022-11-10T20:49:40.100Z,3.70
2022-11-10T20:52:06.563Z,3.40
2022-11-10T20:54:33.362Z,3.90
2022-11-10T20:56:59.824Z,3.90
2022-11-10T20:59:26.251Z,3.23
2022-11-10T21:01:52.923Z,3.97
2022-11-10T21:04:19.452Z,3.73
2022-11-10T21:06:45.993Z,3.10
2022-11-10T21:09:12.722Z,3.80
2022-11-10T21:11:57.767Z,4.00
2022-11-10T21:14:24.220Z,3.37
2022-11-10T21:16:50.671Z,3.27
2022-11-10T21:19:17.218Z,3.13
2022-11-10T21:21:43.735Z,3.40
2022-11-10T21:24:10.717Z,3.53
2022-11-10T21:26:37.791Z,4.30
2022-11-10T21:29:05.145Z,3.50
2022-11-10T21:31:31.703Z,3.20
2022-11-10T21:33:59.145Z,4.17
2022-11-10T21:36:29.881Z,3.90
2022-11-10T21:38:57.103Z,3.53
2022-11-10T21:41:23.610Z,3.13
2022-11-10T21:43:50.098Z,3.10
2022-11-10T21:46:16.748Z,3.30
2022-11-10T21:48:43.293Z,3.50
2022-11-10T21:51:11.091Z,3.00
2022-11-10T21:53:39.693Z,3.40
2022-11-10T21:56:07.732Z,2.97
2022-11-10T21:58:34.887Z,3.10
2022-11-10T22:01:02.336Z,2.97
2022-11-10T22:03:29.999Z,3.13
2022-11-10T22:06:03.048Z,3.43
2022-11-10T22:08:29.558Z,2.60
2022-11-10T22:11:14.829Z,2.67
2022-11-10T22:13:59.890Z,3.57
2022-11-10T22:16:47.550Z,2.73
2022-11-10T22:19:17.283Z,3.03
2022-11-10T22:21:44.345Z,2.70
2022-11-10T22:24:23.373Z,3.10
2022-11-10T22:26:50.675Z,2.90
2022-11-10T22:29:17.605Z,3.07
2022-11-10T22:31:44.487Z,3.43
2022-11-10T22:34:11.158Z,2.80
2022-11-10T22:36:37.864Z,2.87
2022-11-10T22:39:04.771Z,3.10
2022-11-10T22:41:49.944Z,4.07
2022-11-10T22:44:17.089Z,3.20
2022-11-10T22:46:48.053Z,3.37
2022-11-10T22:49:15.800Z,3.37
2022-11-10T22:51:43.957Z,3.10
2022-11-10T22:54:20.898Z,3.20
2022-11-10T22:56:48.189Z,3.40
2022-11-10T22:59:17.730Z,3.37
2022-11-10T23:01:44.554Z,3.43
2022-11-10T23:04:11.956Z,3.20
2022-11-10T23:06:40.271Z,3.33
2022-11-10T23:09:07.253Z,3.60
2022-11-10T23:11:34.246Z,3.97
2022-11-10T23:14:00.693Z,3.83
2022-11-10T23:16:29.604Z,3.47
2022-11-10T23:18:57.382Z,3.73
2022-11-10T23:21:26.832Z,3.27
2022-11-10T23:23:53.791Z,3.73
2022-11-10T23:26:22.526Z,3.60
2022-11-10T23:28:49.290Z,3.47
2022-11-10T23:31:18.564Z,3.60
2022-11-10T23:33:46.871Z,3.97
2022-11-10T23:36:16.396Z,3.70
2022-11-10T23:38:43.112Z,4.10
2022-11-10T23:41:16.754Z,3.33
2022-11-10T23:43:43.551Z,3.67
2022-11-10T23:46:10.957Z,3.47
2022-11-10T23:48:38.135Z,3.77
2022-11-10T23:51:05.458Z,3.93
2022-11-10T23:53:32.791Z,3.43
2022-11-10T23:56:04.889Z,4.10
2022-11-10T23:58:32.536Z,4.13
